nws-alerts: Checking more than four warning/county codes can delay the loading of your pages. You should use a cron job to get the data.
EllijayWeather Station Historical Data
Daily Summary for February 4, 2019 Units:  English    Metric   Both
Daily Weekly Monthly Yearly Custom
  High: Low: Average:
Temperature: 60.4 °F 31.3 °F 46.5 °F
Dew Point: 53.6 °F 30.2 °F 43.4 °F
Humidity: 99% 75% 90%
Wind Speed: 0.9mph 0.0mph 0mph
Wind Gust: 3.0mph - -
Wind- - ENE
Pressure: 30.18 in 30.07 in -
Precipitation: 0.00 in    
Historical Graphs
 
 
Tabular Data for February 4, 2019
Time Temperature Dew Point Pressure Wind Wind Speed Wind Gust Humidity Rainfall Rate (Hourly) solar
00:04 38.5 °F 37.2 °F 30.13 in Calm     95% 0.00 in meteobridge W/m2
00:09 38.5 °F 37.2 °F 30.13 in Calm     95% 0.00 in meteobridge W/m2
00:14 38.1 °F 36.9 °F 30.14 in Calm     95% 0.00 in meteobridge W/m2
00:19 38.1 °F 36.9 °F 30.13 in Calm     95% 0.00 in meteobridge W/m2
00:24 37.9 °F 36.7 °F 30.13 in Calm     95% 0.00 in meteobridge W/m2
00:29 37.8 °F 36.5 °F 30.13 in Calm     95% 0.00 in meteobridge W/m2
00:34 37.8 °F 36.5 °F 30.13 in Calm     95% 0.00 in meteobridge W/m2
00:39 37.6 °F 36.3 °F 30.13 in Calm     95% 0.00 in meteobridge W/m2
00:44 37.6 °F 36.5 °F 30.13 in Calm     96% 0.00 in meteobridge W/m2
00:49 37.6 °F 36.5 °F 30.13 in Calm     96% 0.00 in meteobridge W/m2
00:54 37.6 °F 36.5 °F 30.13 in Calm     96% 0.00 in meteobridge W/m2
00:59 37.6 °F 36.5 °F 30.13 in Calm     96% 0.00 in meteobridge W/m2
01:04 37.4 °F 36.3 °F 30.13 in Calm     96% 0.00 in meteobridge W/m2
01:09 37.2 °F 36.1 °F 30.13 in Calm     96% 0.00 in meteobridge W/m2
01:14 37.0 °F 35.8 °F 30.13 in Calm     95% 0.00 in meteobridge W/m2
01:19 37.0 °F 35.8 °F 30.13 in Calm     95% 0.00 in meteobridge W/m2
01:24 36.9 °F 35.6 °F 30.13 in Calm     95% 0.00 in meteobridge W/m2
01:29 36.7 °F 35.4 °F 30.13 in Calm     95% 0.00 in meteobridge W/m2
01:34 36.5 °F 35.2 °F 30.13 in Calm     95% 0.00 in meteobridge W/m2
01:39 36.3 °F 35.1 °F 30.13 in Calm     95% 0.00 in meteobridge W/m2
01:44 36.1 °F 35.1 °F 30.12 in Calm     96% 0.00 in meteobridge W/m2
01:49 36.1 °F 34.9 °F 30.12 in Calm     95% 0.00 in meteobridge W/m2
01:54 36.0 °F 34.9 °F 30.12 in Calm     96% 0.00 in meteobridge W/m2
01:59 36.0 °F 34.9 °F 30.12 in Calm     96% 0.00 in meteobridge W/m2
02:04 35.8 °F 34.7 °F 30.12 in Calm     96% 0.00 in meteobridge W/m2
02:09 35.8 °F 34.7 °F 30.12 in Calm     96% 0.00 in meteobridge W/m2
02:14 35.8 °F 34.7 °F 30.12 in Calm     96% 0.00 in meteobridge W/m2
02:19 35.6 °F 34.5 °F 30.12 in Calm     96% 0.00 in meteobridge W/m2
02:24 35.6 °F 34.5 °F 30.12 in Calm     96% 0.00 in meteobridge W/m2
02:29 35.4 °F 34.3 °F 30.12 in Calm     96% 0.00 in meteobridge W/m2
02:34 35.2 °F 34.2 °F 30.12 in Calm     96% 0.00 in meteobridge W/m2
02:39 35.2 °F 34.2 °F 30.12 in Calm     96% 0.00 in meteobridge W/m2
02:44 35.2 °F 34.2 °F 30.12 in Calm     96% 0.00 in meteobridge W/m2
02:49 35.2 °F 34.2 °F 30.12 in Calm     96% 0.00 in meteobridge W/m2
02:54 35.2 °F 34.2 °F 30.12 in Calm     96% 0.00 in meteobridge W/m2
02:59 35.1 °F 34.0 °F 30.12 in Calm     96% 0.00 in meteobridge W/m2
03:04 35.1 °F 34.0 °F 30.12 in Calm     96% 0.00 in meteobridge W/m2
03:09 35.1 °F 34.0 °F 30.12 in Calm     96% 0.00 in meteobridge W/m2
03:14 34.9 °F 33.8 °F 30.12 in Calm     96% 0.00 in meteobridge W/m2
03:19 34.7 °F 33.6 °F 30.12 in Calm     96% 0.00 in meteobridge W/m2
03:24 34.5 °F 33.4 °F 30.12 in Calm     96% 0.00 in meteobridge W/m2
03:29 34.5 °F 33.4 °F 30.12 in Calm     96% 0.00 in meteobridge W/m2
03:34 34.3 °F 33.3 °F 30.12 in Calm     96% 0.00 in meteobridge W/m2
03:39 34.3 °F 33.3 °F 30.12 in Calm     96% 0.00 in meteobridge W/m2
03:44 34.2 °F 33.1 °F 30.12 in Calm     96% 0.00 in meteobridge W/m2
03:49 34.2 °F 33.1 °F 30.12 in Calm     96% 0.00 in meteobridge W/m2
03:54 34.0 °F 32.9 °F 30.12 in Calm     96% 0.00 in meteobridge W/m2
03:59 34.0 °F 32.9 °F 30.12 in Calm     96% 0.00 in meteobridge W/m2
04:04 33.8 °F 32.7 °F 30.11 in Calm     96% 0.00 in meteobridge W/m2
04:09 33.6 °F 32.5 °F 30.11 in Calm     96% 0.00 in meteobridge W/m2
04:14 33.6 °F 32.5 °F 30.11 in Calm     96% 0.00 in meteobridge W/m2
04:19 33.6 °F 32.5 °F 30.12 in Calm     96% 0.00 in meteobridge W/m2
04:24 33.4 °F 32.4 °F 30.12 in Calm     96% 0.00 in meteobridge W/m2
04:29 33.4 °F 32.4 °F 30.12 in Calm     96% 0.00 in meteobridge W/m2
04:34 33.4 °F 32.4 °F 30.12 in Calm     96% 0.00 in meteobridge W/m2
04:39 33.3 °F 32.2 °F 30.12 in Calm     96% 0.00 in meteobridge W/m2
04:44 33.3 °F 32.2 °F 30.12 in Calm     96% 0.00 in meteobridge W/m2
04:49 33.1 °F 32.0 °F 30.12 in Calm     96% 0.00 in meteobridge W/m2
04:54 33.1 °F 32.0 °F 30.13 in Calm     96% 0.00 in meteobridge W/m2
04:59 32.9 °F 31.8 °F 30.12 in Calm     96% 0.00 in meteobridge W/m2
05:04 32.9 °F 31.8 °F 30.13 in Calm     96% 0.00 in meteobridge W/m2
05:09 32.7 °F 31.6 °F 30.13 in Calm     96% 0.00 in meteobridge W/m2
05:14 32.7 °F 31.6 °F 30.13 in Calm     96% 0.00 in meteobridge W/m2
05:19 32.5 °F 31.5 °F 30.13 in Calm     96% 0.00 in meteobridge W/m2
05:24 32.5 °F 31.5 °F 30.13 in Calm     96% 0.00 in meteobridge W/m2
05:29 32.5 °F 31.5 °F 30.13 in Calm     96% 0.00 in meteobridge W/m2
05:34 32.4 °F 31.3 °F 30.13 in Calm     96% 0.00 in meteobridge W/m2
05:39 32.4 °F 31.3 °F 30.13 in Calm     96% 0.00 in meteobridge W/m2
05:44 32.4 °F 31.3 °F 30.13 in Calm     96% 0.00 in meteobridge W/m2
05:49 32.4 °F 31.3 °F 30.13 in Calm     96% 0.00 in meteobridge W/m2
05:54 32.2 °F 31.1 °F 30.13 in Calm     96% 0.00 in meteobridge W/m2
05:59 32.2 °F 31.1 °F 30.13 in Calm     96% 0.00 in meteobridge W/m2
06:04 32.2 °F 31.1 °F 30.13 in Calm     96% 0.00 in meteobridge W/m2
06:09 32.0 °F 30.9 °F 30.13 in Calm     96% 0.00 in meteobridge W/m2
06:14 32.0 °F 30.9 °F 30.14 in Calm     96% 0.00 in meteobridge W/m2
06:19 32.0 °F 30.9 °F 30.14 in Calm     96% 0.00 in meteobridge W/m2
06:24 31.8 °F 30.7 °F 30.14 in Calm     96% 0.00 in meteobridge W/m2
06:29 31.8 °F 30.7 °F 30.14 in Calm     96% 0.00 in meteobridge W/m2
06:34 31.8 °F 30.7 °F 30.14 in Calm     96% 0.00 in meteobridge W/m2
06:39 31.8 °F 30.7 °F 30.14 in Calm     96% 0.00 in meteobridge W/m2
06:44 31.6 °F 30.6 °F 30.14 in Calm     96% 0.00 in meteobridge W/m2
06:49 31.6 °F 30.6 °F 30.14 in Calm     96% 0.00 in meteobridge W/m2
06:54 31.6 °F 30.9 °F 30.14 in Calm     97% 0.00 in meteobridge W/m2
06:59 31.6 °F 30.9 °F 30.14 in Calm     97% 0.00 in meteobridge W/m2
07:04 31.6 °F 30.6 °F 30.14 in Calm     96% 0.00 in meteobridge W/m2
07:09 31.5 °F 30.7 °F 30.14 in Calm     97% 0.00 in meteobridge W/m2
07:14 31.5 °F 30.4 °F 30.14 in Calm     96% 0.00 in meteobridge W/m2
07:19 31.5 °F 30.4 °F 30.14 in Calm     96% 0.00 in meteobridge W/m2
07:24 31.5 °F 30.7 °F 30.15 in Calm     97% 0.00 in meteobridge W/m2
07:29 31.5 °F 30.4 °F 30.14 in Calm     96% 0.00 in meteobridge W/m2
07:34 31.5 °F 30.4 °F 30.15 in Calm     96% 0.00 in meteobridge W/m2
07:39 31.3 °F 30.2 °F 30.15 in Calm     96% 0.00 in meteobridge W/m2
07:44 31.3 °F 30.2 °F 30.15 in Calm     96% 0.00 in meteobridge W/m2
07:49 31.3 °F 30.2 °F 30.15 in Calm     96% 0.00 in meteobridge W/m2
07:54 31.3 °F 30.6 °F 30.15 in Calm     97% 0.00 in meteobridge W/m2
07:59 31.5 °F 30.7 °F 30.15 in Calm     97% 0.00 in meteobridge W/m2
08:04 31.5 °F 30.7 °F 30.15 in Calm     97% 0.00 in meteobridge W/m2
08:09 31.5 °F 30.7 °F 30.15 in Calm     97% 0.00 in meteobridge W/m2
08:14 31.5 °F 30.7 °F 30.15 in Calm     97% 0.00 in meteobridge W/m2
08:19 31.6 °F 30.9 °F 30.15 in Calm     97% 0.00 in meteobridge W/m2
08:24 31.8 °F 31.1 °F 30.15 in Calm     97% 0.00 in meteobridge W/m2
08:29 32.2 °F 31.5 °F 30.15 in Calm     97% 0.00 in meteobridge W/m2
08:34 32.5 °F 32.0 °F 30.16 in Calm     98% 0.00 in meteobridge W/m2
08:39 32.7 °F 32.2 °F 30.16 in Calm     98% 0.00 in meteobridge W/m2
08:44 33.3 °F 32.7 °F 30.16 in Calm     98% 0.00 in meteobridge W/m2
08:49 34.0 °F 33.4 °F 30.16 in Calm     98% 0.00 in meteobridge W/m2
08:54 34.3 °F 33.8 °F 30.15 in Calm     98% 0.00 in meteobridge W/m2
08:59 34.7 °F 34.2 °F 30.16 in Calm     98% 0.00 in meteobridge W/m2
09:04 35.2 °F 34.7 °F 30.15 in Calm     98% 0.00 in meteobridge W/m2
09:09 36.0 °F 35.4 °F 30.16 in Calm     98% 0.00 in meteobridge W/m2
09:14 36.3 °F 35.8 °F 30.15 in Calm     98% 0.00 in meteobridge W/m2
09:19 37.0 °F 36.5 °F 30.15 in Calm     98% 0.00 in meteobridge W/m2
09:24 37.8 °F 37.6 °F 30.15 in Calm     99% 0.00 in meteobridge W/m2
09:28 38.7 °F 38.1 °F 30.16 in Calm     98% 0.00 in meteobridge W/m2
09:34 39.7 °F 39.6 °F 30.16 in Calm     99% 0.00 in meteobridge W/m2
09:39 40.5 °F 39.9 °F 30.16 in Calm     98% 0.00 in meteobridge W/m2
09:44 41.4 °F 41.2 °F 30.17 in Calm     99% 0.00 in meteobridge W/m2
09:49 41.9 °F 41.7 °F 30.17 in Calm     99% 0.00 in meteobridge W/m2
09:54 42.4 °F 42.3 °F 30.17 in Calm     99% 0.00 in meteobridge W/m2
09:59 42.8 °F 42.6 °F 30.17 in Calm     99% 0.00 in meteobridge W/m2
10:04 43.3 °F 43.2 °F 30.17 in Calm     99% 0.00 in meteobridge W/m2
10:09 43.9 °F 43.7 °F 30.17 in Calm     99% 0.00 in meteobridge W/m2
10:14 44.4 °F 44.2 °F 30.17 in Calm     99% 0.00 in meteobridge W/m2
10:19 45.1 °F 45.0 °F 30.17 in Calm     99% 0.00 in meteobridge W/m2
10:24 46.6 °F 46.4 °F 30.17 in Calm   1.0 mph 99% 0.00 in meteobridge W/m2
10:29 47.3 °F 45.7 °F 30.18 in Calm     94% 0.00 in meteobridge W/m2
10:34 48.0 °F 45.5 °F 30.18 in Calm     91% 0.00 in meteobridge W/m2
10:39 48.6 °F 45.7 °F 30.18 in Calm     90% 0.00 in meteobridge W/m2
10:44 49.3 °F 46.4 °F 30.18 in Calm   1.0 mph 90% 0.00 in meteobridge W/m2
10:49 49.6 °F 46.8 °F 30.18 in Calm     90% 0.00 in meteobridge W/m2
10:54 50.4 °F 47.5 °F 30.18 in Calm     90% 0.00 in meteobridge W/m2
10:59 51.3 °F 47.8 °F 30.18 in Calm     88% 0.00 in meteobridge W/m2
11:04 52.2 °F 48.4 °F 30.18 in Calm     87% 0.00 in meteobridge W/m2
11:09 52.7 °F 48.6 °F 30.18 in Calm     86% 0.00 in meteobridge W/m2
11:14 53.6 °F 49.5 °F 30.17 in Calm     86% 0.00 in meteobridge W/m2
11:19 54.3 °F 49.8 °F 30.17 in Calm   1.0 mph 85% 0.00 in meteobridge W/m2
11:24 55.0 °F 50.0 °F 30.17 in Calm     83% 0.00 in meteobridge W/m2
11:29 55.6 °F 50.2 °F 30.17 in Calm   1.0 mph 82% 0.00 in meteobridge W/m2
11:34 56.5 °F 51.1 °F 30.17 in Calm     82% 0.00 in meteobridge W/m2
11:39 57.0 °F 50.9 °F 30.17 in Calm     80% 0.00 in meteobridge W/m2
11:44 57.4 °F 50.9 °F 30.16 in Calm     79% 0.00 in meteobridge W/m2
11:49 57.6 °F 51.1 °F 30.16 in Calm     79% 0.00 in meteobridge W/m2
11:54 57.7 °F 50.5 °F 30.16 in Calm   3.0 mph 77% 0.00 in meteobridge W/m2
11:59 57.7 °F 50.5 °F 30.16 in Calm   3.0 mph 77% 0.00 in meteobridge W/m2
12:04 57.9 °F 50.7 °F 30.16 in Calm   1.0 mph 77% 0.00 in meteobridge W/m2
12:09 58.1 °F 50.9 °F 30.16 in Calm     77% 0.00 in meteobridge W/m2
12:14 58.3 °F 51.4 °F 30.16 in Calm     78% 0.00 in meteobridge W/m2
12:19 58.3 °F 51.4 °F 30.15 in Calm     78% 0.00 in meteobridge W/m2
12:24 58.5 °F 51.6 °F 30.15 in Calm     78% 0.00 in meteobridge W/m2
12:29 58.6 °F 52.2 °F 30.15 in Calm   3.0 mph 79% 0.00 in meteobridge W/m2
12:34 58.8 °F 52.0 °F 30.15 in Calm   2.0 mph 78% 0.00 in meteobridge W/m2
12:39 58.8 °F 52.0 °F 30.14 in Calm   3.0 mph 78% 0.00 in meteobridge W/m2
12:44 58.8 °F 51.6 °F 30.14 in Calm   1.0 mph 77% 0.00 in meteobridge W/m2
12:49 58.8 °F 51.6 °F 30.14 in Calm   1.0 mph 77% 0.00 in meteobridge W/m2
12:54 58.8 °F 52.0 °F 30.14 in Calm     78% 0.00 in meteobridge W/m2
12:59 58.6 °F 52.2 °F 30.13 in Calm     79% 0.00 in meteobridge W/m2
13:04 58.6 °F 51.4 °F 30.13 in Calm     77% 0.00 in meteobridge W/m2
13:09 58.6 °F 52.2 °F 30.13 in Calm     79% 0.00 in meteobridge W/m2
13:13 58.6 °F 51.8 °F 30.12 in Calm     78% 0.00 in meteobridge W/m2
13:19 59.0 °F 52.2 °F 30.12 in Calm     78% 0.00 in meteobridge W/m2
13:24 59.2 °F 52.0 °F 30.11 in Calm   2.0 mph 77% 0.00 in meteobridge W/m2
13:29 59.2 °F 52.3 °F 30.11 in Calm     78% 0.00 in meteobridge W/m2
13:34 59.4 °F 52.2 °F 30.11 in Calm     77% 0.00 in meteobridge W/m2
13:39 59.2 °F 52.3 °F 30.11 in Calm     78% 0.00 in meteobridge W/m2
13:44 59.4 °F 52.2 °F 30.11 in Calm   1.0 mph 77% 0.00 in meteobridge W/m2
13:49 59.4 °F 52.2 °F 30.10 in Calm     77% 0.00 in meteobridge W/m2
13:54 59.4 °F 52.2 °F 30.10 in Calm   1.0 mph 77% 0.00 in meteobridge W/m2
13:59 59.5 °F 52.0 °F 30.10 in Calm     76% 0.00 in meteobridge W/m2
14:04 59.5 °F 52.3 °F 30.10 in Calm     77% 0.00 in meteobridge W/m2
14:09 59.7 °F 52.2 °F 30.09 in Calm     76% 0.00 in meteobridge W/m2
14:14 59.9 °F 52.3 °F 30.09 in Calm     76% 0.00 in meteobridge W/m2
14:19 60.3 °F 52.3 °F 30.09 in Calm   2.0 mph 75% 0.00 in meteobridge W/m2
14:24 60.3 °F 52.3 °F 30.09 in Calm   1.0 mph 75% 0.00 in meteobridge W/m2
14:29 60.4 °F 52.5 °F 30.09 in Calm     75% 0.00 in meteobridge W/m2
14:34 60.4 °F 52.5 °F 30.09 in Calm     75% 0.00 in meteobridge W/m2
14:39 60.4 °F 52.5 °F 30.09 in Calm   1.0 mph 75% 0.00 in meteobridge W/m2
14:44 60.4 °F 52.5 °F 30.09 in Calm     75% 0.00 in meteobridge W/m2
14:49 60.4 °F 52.9 °F 30.09 in Calm     76% 0.00 in meteobridge W/m2
14:54 60.4 °F 52.5 °F 30.08 in Calm     75% 0.00 in meteobridge W/m2
14:59 60.4 °F 52.5 °F 30.09 in Calm     75% 0.00 in meteobridge W/m2
15:04 60.4 °F 52.9 °F 30.08 in ENE 0.9 mph 1.0 mph 76% 0.00 in meteobridge W/m2
15:09 60.4 °F 52.5 °F 30.08 in Calm     75% 0.00 in meteobridge W/m2
15:14 60.4 °F 53.2 °F 30.08 in Calm     77% 0.00 in meteobridge W/m2
15:19 60.4 °F 53.6 °F 30.09 in Calm     78% 0.00 in meteobridge W/m2
15:24 60.4 °F 53.2 °F 30.08 in Calm     77% 0.00 in meteobridge W/m2
15:29 60.4 °F 52.9 °F 30.09 in Calm     76% 0.00 in meteobridge W/m2
15:34 60.3 °F 53.4 °F 30.09 in Calm     78% 0.00 in meteobridge W/m2
15:39 60.3 °F 52.7 °F 30.08 in Calm     76% 0.00 in meteobridge W/m2
15:44 60.3 °F 52.7 °F 30.08 in Calm     76% 0.00 in meteobridge W/m2
15:49 60.3 °F 52.7 °F 30.08 in Calm   3.0 mph 76% 0.00 in meteobridge W/m2
15:54 60.3 °F 52.7 °F 30.08 in Calm   1.0 mph 76% 0.00 in meteobridge W/m2
15:59 60.3 °F 52.7 °F 30.08 in Calm     76% 0.00 in meteobridge W/m2
16:04 60.3 °F 52.7 °F 30.08 in Calm     76% 0.00 in meteobridge W/m2
16:09 60.1 °F 52.5 °F 30.08 in Calm     76% 0.00 in meteobridge W/m2
16:14 60.1 °F 52.9 °F 30.08 in Calm     77% 0.00 in meteobridge W/m2
16:19 60.1 °F 52.5 °F 30.08 in Calm     76% 0.00 in meteobridge W/m2
16:24 60.1 °F 52.5 °F 30.07 in Calm     76% 0.00 in meteobridge W/m2
16:29 59.7 °F 52.2 °F 30.07 in Calm     76% 0.00 in meteobridge W/m2
16:34 59.7 °F 52.5 °F 30.08 in Calm     77% 0.00 in meteobridge W/m2
16:39 59.5 °F 52.7 °F 30.08 in Calm     78% 0.00 in meteobridge W/m2
16:44 59.4 °F 52.5 °F 30.08 in Calm     78% 0.00 in meteobridge W/m2
16:49 59.2 °F 52.7 °F 30.08 in Calm     79% 0.00 in meteobridge W/m2
16:54 59.2 °F 52.3 °F 30.08 in Calm     78% 0.00 in meteobridge W/m2
16:59 59.2 °F 52.3 °F 30.08 in Calm     78% 0.00 in meteobridge W/m2
17:04 59.2 °F 52.3 °F 30.08 in Calm     78% 0.00 in meteobridge W/m2
17:09 58.8 °F 52.0 °F 30.08 in Calm     78% 0.00 in meteobridge W/m2
17:14 58.8 °F 52.0 °F 30.08 in Calm     78% 0.00 in meteobridge W/m2
17:19 58.6 °F 52.2 °F 30.08 in Calm     79% 0.00 in meteobridge W/m2
17:24 58.5 °F 52.0 °F 30.08 in Calm     79% 0.00 in meteobridge W/m2
17:29 58.3 °F 52.2 °F 30.08 in Calm     80% 0.00 in meteobridge W/m2
17:34 57.9 °F 51.8 °F 30.08 in Calm     80% 0.00 in meteobridge W/m2
17:39 57.7 °F 52.0 °F 30.08 in Calm     81% 0.00 in meteobridge W/m2
17:44 57.6 °F 51.8 °F 30.08 in Calm     81% 0.00 in meteobridge W/m2
17:49 57.4 °F 51.6 °F 30.08 in Calm     81% 0.00 in meteobridge W/m2
17:54 57.0 °F 51.3 °F 30.08 in Calm     81% 0.00 in meteobridge W/m2
17:59 56.8 °F 51.4 °F 30.08 in Calm     82% 0.00 in meteobridge W/m2
18:04 56.5 °F 51.4 °F 30.08 in Calm     83% 0.00 in meteobridge W/m2
18:09 56.1 °F 51.1 °F 30.08 in Calm     83% 0.00 in meteobridge W/m2
18:14 55.8 °F 51.1 °F 30.08 in Calm     84% 0.00 in meteobridge W/m2
18:19 55.4 °F 50.9 °F 30.08 in Calm     85% 0.00 in meteobridge W/m2
18:24 55.2 °F 50.7 °F 30.08 in Calm     85% 0.00 in meteobridge W/m2
18:29 54.7 °F 50.5 °F 30.08 in Calm     86% 0.00 in meteobridge W/m2
18:34 54.5 °F 50.4 °F 30.08 in Calm     86% 0.00 in meteobridge W/m2
18:39 54.1 °F 50.4 °F 30.08 in Calm     87% 0.00 in meteobridge W/m2
18:44 53.8 °F 50.0 °F 30.08 in Calm     87% 0.00 in meteobridge W/m2
18:49 53.2 °F 49.8 °F 30.08 in Calm     88% 0.00 in meteobridge W/m2
18:54 53.1 °F 49.6 °F 30.08 in Calm     88% 0.00 in meteobridge W/m2
18:59 52.7 °F 49.5 °F 30.08 in Calm     89% 0.00 in meteobridge W/m2
19:04 52.5 °F 49.6 °F 30.09 in Calm     90% 0.00 in meteobridge W/m2
19:09 52.3 °F 49.5 °F 30.09 in Calm     90% 0.00 in meteobridge W/m2
19:14 52.2 °F 49.6 °F 30.10 in Calm     91% 0.00 in meteobridge W/m2
19:19 52.0 °F 49.5 °F 30.10 in Calm     91% 0.00 in meteobridge W/m2
19:24 51.8 °F 49.3 °F 30.10 in Calm     91% 0.00 in meteobridge W/m2
19:29 51.6 °F 49.1 °F 30.09 in Calm     91% 0.00 in meteobridge W/m2
19:34 51.6 °F 49.1 °F 30.09 in Calm     91% 0.00 in meteobridge W/m2
19:39 51.4 °F 48.9 °F 30.09 in Calm     91% 0.00 in meteobridge W/m2
19:44 51.4 °F 49.3 °F 30.09 in Calm     92% 0.00 in meteobridge W/m2
19:49 51.4 °F 49.3 °F 30.09 in Calm     92% 0.00 in meteobridge W/m2
19:54 51.3 °F 49.1 °F 30.09 in Calm     92% 0.00 in meteobridge W/m2
19:59 51.3 °F 49.1 °F 30.09 in Calm     92% 0.00 in meteobridge W/m2
20:04 51.1 °F 48.9 °F 30.09 in Calm     92% 0.00 in meteobridge W/m2
20:09 51.1 °F 48.9 °F 30.09 in Calm     92% 0.00 in meteobridge W/m2
20:14 51.1 °F 49.1 °F 30.10 in Calm     93% 0.00 in meteobridge W/m2
20:19 51.1 °F 49.1 °F 30.10 in Calm     93% 0.00 in meteobridge W/m2
20:24 51.3 °F 49.3 °F 30.10 in Calm     93% 0.00 in meteobridge W/m2
20:29 51.3 °F 49.3 °F 30.10 in Calm     93% 0.00 in meteobridge W/m2
20:34 51.3 °F 49.3 °F 30.10 in Calm     93% 0.00 in meteobridge W/m2
20:39 51.3 °F 49.3 °F 30.10 in Calm     93% 0.00 in meteobridge W/m2
20:44 51.3 °F 49.1 °F 30.10 in Calm     92% 0.00 in meteobridge W/m2
20:49 51.3 °F 49.1 °F 30.10 in Calm     92% 0.00 in meteobridge W/m2
20:54 51.3 °F 49.3 °F 30.10 in Calm     93% 0.00 in meteobridge W/m2
20:59 51.3 °F 49.1 °F 30.10 in Calm     92% 0.00 in meteobridge W/m2
21:04 51.3 °F 49.1 °F 30.10 in Calm     92% 0.00 in meteobridge W/m2
21:09 51.3 °F 49.1 °F 30.10 in Calm     92% 0.00 in meteobridge W/m2
21:14 51.1 °F 48.9 °F 30.10 in Calm     92% 0.00 in meteobridge W/m2
21:19 51.1 °F 49.1 °F 30.10 in Calm     93% 0.00 in meteobridge W/m2
21:24 51.1 °F 48.9 °F 30.11 in Calm     92% 0.00 in meteobridge W/m2
21:29 51.1 °F 49.1 °F 30.11 in Calm     93% 0.00 in meteobridge W/m2
21:34 51.1 °F 49.1 °F 30.11 in Calm     93% 0.00 in meteobridge W/m2
21:39 51.1 °F 48.9 °F 30.11 in Calm     92% 0.00 in meteobridge W/m2
21:44 51.1 °F 48.9 °F 30.11 in Calm     92% 0.00 in meteobridge W/m2
21:49 51.1 °F 49.1 °F 30.11 in Calm     93% 0.00 in meteobridge W/m2
21:54 51.1 °F 49.1 °F 30.11 in Calm     93% 0.00 in meteobridge W/m2
21:59 51.1 °F 49.1 °F 30.11 in Calm     93% 0.00 in meteobridge W/m2
22:04 51.1 °F 49.1 °F 30.11 in Calm     93% 0.00 in meteobridge W/m2
22:09 51.1 °F 49.1 °F 30.11 in Calm     93% 0.00 in meteobridge W/m2
22:14 51.1 °F 49.1 °F 30.11 in Calm     93% 0.00 in meteobridge W/m2
22:19 51.3 °F 49.6 °F 30.11 in Calm     94% 0.00 in meteobridge W/m2
22:24 51.1 °F 49.1 °F 30.11 in Calm     93% 0.00 in meteobridge W/m2
22:29 51.3 °F 49.3 °F 30.11 in Calm     93% 0.00 in meteobridge W/m2
22:34 51.3 °F 49.3 °F 30.11 in Calm     93% 0.00 in meteobridge W/m2
22:39 51.3 °F 49.3 °F 30.11 in Calm     93% 0.00 in meteobridge W/m2
22:44 51.3 °F 49.3 °F 30.11 in Calm     93% 0.00 in meteobridge W/m2
22:49 51.1 °F 49.1 °F 30.11 in Calm     93% 0.00 in meteobridge W/m2
22:54 51.1 °F 49.1 °F 30.11 in Calm     93% 0.00 in meteobridge W/m2
22:59 51.1 °F 49.1 °F 30.11 in Calm     93% 0.00 in meteobridge W/m2
23:04 51.1 °F 49.1 °F 30.11 in Calm     93% 0.00 in meteobridge W/m2
23:09 50.9 °F 48.9 °F 30.11 in Calm     93% 0.00 in meteobridge W/m2
23:14 50.9 °F 49.3 °F 30.11 in Calm     94% 0.00 in meteobridge W/m2
23:19 50.9 °F 48.9 °F 30.11 in Calm     93% 0.00 in meteobridge W/m2
23:24 51.1 °F 49.1 °F 30.11 in Calm     93% 0.00 in meteobridge W/m2
23:29 51.1 °F 49.1 °F 30.12 in Calm     93% 0.00 in meteobridge W/m2
23:34 50.9 °F 48.9 °F 30.11 in Calm     93% 0.00 in meteobridge W/m2
23:39 50.9 °F 48.9 °F 30.12 in Calm     93% 0.00 in meteobridge W/m2
23:44 50.7 °F 48.7 °F 30.12 in Calm     93% 0.00 in meteobridge W/m2
23:49 50.7 °F 48.7 °F 30.11 in Calm     93% 0.00 in meteobridge W/m2
23:54 50.7 °F 49.1 °F 30.11 in Calm     94% 0.00 in meteobridge W/m2
23:59 50.7 °F 48.7 °F 30.11 in Calm     93% 0.00 in meteobridge W/m2
EllijayWeather
Compliments of Weather Underground - 2.5 mb